Weston, Nebraska
Current Conditions -  °F | °C
As of 8:55 PM on Thursday 27 Nov 2014 (Local Time) from KAHQ Reporting Station
Clear Clear  
Wind Chill: 12°   Ceiling: Unl
Heat Index: 23°   Visibility: 10mi
Dew Point: 15°   Wind: 10mph
Humidity: 73%   Direction: 140°SE
Pressure: 30.18"   Gusts: NA
Location:  41.19°N, 96.74°W
Report Text: KAHQ 280255Z AUTO 14009KT 10SM CLR M05/M09 A3018 RMK AO2 T10501092
Loading
Personal Weather Stations






























Interactive Weather Map New forecast layout! Learn more

10-Day Weather Forecast

Advertisements
Track Severe Weather on mobile